Captain Charles Philbrook — WBR5375 — position and weather

sailwx.info

Track history (hours):
 
Tides and Currents Weather Stations Pressure Air Temp Water Temp Dewpoint Dewpoint Depression Visibility Wind Speed Wind Dir Waves Ship Positions

Captain Charles Philbrook

Owner: State of Maine, O.I.T., Radio Operations, Augusta, ME. More information available from US FCC via Universal Licensing System and Coast Guard Vessel Documentation Center.

Last reported at 2018-Jul-21 23:47 UTC. Time now 2018-Jul-22 01:00 UTC.
Position N 44°03' W 068°50'.

Length 40 m; draft 3.2 m.

Type: Passenger vessel. MMSI: 367342230.

Date/timePositionNaut miles runAvg speedWind from/ knotsBaromVisibWave heightAir tempDewpointWater temp
2018-Jul-21 23:47N 44°03' W 068°50'0 0.0
2018-Jul-21 23:26N 44°03' W 068°50'0 0.0
2018-Jul-21 23:00N 44°03' W 068°50'0 0.0
2018-Jul-21 22:28N 44°03' W 068°50'0 0.6
2018-Jul-21 21:42N 44°02' W 068°51'210.5
2018-Jul-21 21:30N 44°04' W 068°53'510.3
2018-Jul-21 21:00N 44°06' W 068°60'5 4.5
2018-Jul-21 19:58N 44°06' W 069°06'510.2
2018-Jul-21 19:30N 44°06' W 068°60'510.8
2018-Jul-21 19:00N 44°03' W 068°53'2 2.5
2018-Jul-21 18:15N 44°02' W 068°51'310.1
2018-Jul-21 18:00N 44°04' W 068°54'510.4
2018-Jul-21 17:30N 44°06' W 069°00'4 2.6
2018-Jul-21 15:49N 44°06' W 069°06'3 8.5
2018-Jul-21 15:30N 44°06' W 069°03'510.5
2018-Jul-21 15:00N 44°05' W 068°56'4 3.8
2018-Jul-21 13:55N 44°02' W 068°51'510.6
2018-Jul-21 13:29N 44°05' W 068°56'510.9
2018-Jul-21 13:00N 44°06' W 069°03'2 2.4
2018-Jul-21 12:15N 44°06' W 069°06'210.1
2018-Jul-21 12:00N 44°06' W 069°03'610.5
2018-Jul-21 11:28N 44°04' W 068°55'4 8.4
2018-Jul-21 11:00N 44°03' W 068°50'0 0.0
2018-Jul-20 21:52N 44°03' W 068°50'3 7.9
2018-Jul-20 21:31N 44°04' W 068°54'510.5
2018-Jul-20 21:00N 44°06' W 069°01'4 8.2
2018-Jul-20 20:29N 44°06' W 069°06'0 0.0
2018-Jul-20 20:00N 44°06' W 069°06'5 9.6
2018-Jul-20 19:30N 44°06' W 068°60'510.7
2018-Jul-20 19:00N 44°03' W 068°53'2 4.2
2018-Jul-20 18:30N 44°03' W 068°50'3 5.2
2018-Jul-20 18:01N 44°04' W 068°54'510.2
2018-Jul-20 17:30N 44°06' W 069°00'5 8.2
2018-Jul-20 16:57N 44°06' W 069°06'0 0.0
2018-Jul-20 16:30N 44°06' W 069°06'0 0.1
2018-Jul-20 15:58N 44°06' W 069°06'5 9.7
2018-Jul-20 15:30N 44°06' W 069°00'510.3
2018-Jul-20 15:00N 44°04' W 068°53'2 2.9
2018-Jul-20 14:14N 44°02' W 068°51'210.3
2018-Jul-20 14:00N 44°04' W 068°54'510.5
2018-Jul-20 13:30N 44°06' W 069°00'4 8.9
2018-Jul-20 13:00N 44°06' W 069°06'0 0.0
2018-Jul-20 12:30N 44°06' W 069°06'4 7.1
2018-Jul-20 12:00N 44°06' W 069°02'510.4
2018-Jul-20 11:30N 44°04' W 068°55'4 6.0
2018-Jul-20 10:55N 44°03' W 068°50'1 0.1
2018-Jul-19 21:36N 44°03' W 068°52'110.9
2018-Jul-19 21:28N 44°04' W 068°53'510.7
2018-Jul-19 21:00N 44°06' W 068°60'5 8.6
2018-Jul-19 20:26N 44°06' W 069°06'0 0.4
2018-Jul-19 20:00N 44°06' W 069°06'5 9.8
2018-Jul-19 19:30N 44°06' W 068°60'610.5
2018-Jul-19 18:57N 44°03' W 068°52'2 3.5
2018-Jul-19 18:30N 44°03' W 068°50'3 6.3
2018-Jul-19 17:58N 44°04' W 068°55'510.4
2018-Jul-19 17:30N 44°06' W 069°01'4 2.5
2018-Jul-19 15:49N 44°06' W 069°06'3 9.1
2018-Jul-19 15:30N 44°06' W 069°02'510.6
2018-Jul-19 15:00N 44°04' W 068°55'3 2.9
2018-Jul-19 13:55N 44°03' W 068°52'410.3
2018-Jul-19 13:30N 44°05' W 068°57'510.7
2018-Jul-19 12:59N 44°06' W 069°04'2 2.5
2018-Jul-19 12:22N 44°06' W 069°06'3 8.1
2018-Jul-19 12:00N 44°06' W 069°02'510.4
2018-Jul-19 11:30N 44°04' W 068°56'4 0.3
2018-Jul-18 21:41N 44°02' W 068°51'210.7
2018-Jul-18 21:29N 44°04' W 068°53'510.6
2018-Jul-18 21:00N 44°06' W 068°60'5 4.7
2018-Jul-18 20:01N 44°06' W 069°06'0 7.1
2018-Jul-18 20:00N 44°06' W 069°06'510.0
2018-Jul-18 19:30N 44°06' W 068°59'510.3
2018-Jul-18 19:00N 44°03' W 068°53'0 0.4
2018-Jul-18 18:09N 44°03' W 068°53'2 9.8
2018-Jul-18 17:59N 44°04' W 068°54'510.2
2018-Jul-18 17:30N 44°06' W 069°01'4 2.3
2018-Jul-18 15:47N 44°06' W 069°06'3 9.4
2018-Jul-18 15:30N 44°06' W 069°03'510.5
2018-Jul-18 15:00N 44°05' W 068°56'2 2.3
2018-Jul-18 13:55N 44°03' W 068°53'410.0
2018-Jul-18 13:28N 44°05' W 068°58'510.9
2018-Jul-18 12:58N 44°06' W 069°06'0 0.7
2018-Jul-18 12:18N 44°06' W 069°06'3 9.2
2018-Jul-18 12:00N 44°06' W 069°02'510.1
2018-Jul-18 11:30N 44°05' W 068°56'4 0.3
2018-Jul-17 22:10N 44°02' W 068°51'210.2
2018-Jul-17 21:58N 44°03' W 068°53'510.9
2018-Jul-17 21:30N 44°06' W 068°60'5 4.6
2018-Jul-17 20:30N 44°06' W 069°06'5 9.8
2018-Jul-17 19:59N 44°05' W 068°59'1 0.4
2018-Jul-17 18:07N 44°05' W 068°58'210.2
2018-Jul-17 17:55N 44°06' W 069°01'4 1.8
2018-Jul-17 15:48N 44°06' W 069°06'3 9.0
2018-Jul-17 15:30N 44°06' W 069°03'510.8
2018-Jul-17 15:00N 44°04' W 068°55'4 3.5
2018-Jul-17 13:57N 44°02' W 068°51'5 9.8
2018-Jul-17 13:26N 44°05' W 068°57'511.0
2018-Jul-17 12:59N 44°06' W 069°04'2 2.4
2018-Jul-17 12:18N 44°06' W 069°06'3 9.5
2018-Jul-17 12:00N 44°06' W 069°02'510.5
2018-Jul-17 11:30N 44°04' W 068°55'3 0.3
2018-Jul-16 21:42N 44°02' W 068°51'210.4
2018-Jul-16 21:30N 44°04' W 068°53'610.9
2018-Jul-16 20:59N 44°06' W 069°01'4 4.5
2018-Jul-16 20:03N 44°06' W 069°06'0 6.3
2018-Jul-16 20:00N 44°06' W 069°06'510.1
2018-Jul-16 19:30N 44°06' W 068°59'510.1
2018-Jul-16 18:59N 44°03' W 068°53'1 1.0
2018-Jul-16 18:05N 44°04' W 068°53'210.4
2018-Jul-16 17:53N 44°05' W 068°56'410.5
2018-Jul-16 17:30N 44°06' W 069°01'4 2.0
2018-Jul-16 15:43N 44°06' W 069°06'2 8.4
2018-Jul-16 15:30N 44°06' W 069°04'611.0
2018-Jul-16 15:00N 44°05' W 068°56'4 4.2
2018-Jul-16 14:03N 44°03' W 068°52'111.2
2018-Jul-16 13:59N 44°03' W 068°53'4 9.0
2018-Jul-16 13:30N 44°05' W 068°58'510.8
2018-Jul-16 13:00N 44°06' W 069°05'1 1.2
2018-Jul-16 12:19N 44°06' W 069°06'3 9.2
2018-Jul-16 12:00N 44°06' W 069°02'510.8
2018-Jul-16 11:30N 44°04' W 068°55'2 0.1
2018-Jul-15 21:38N 44°03' W 068°53'210.2
2018-Jul-15 21:26N 44°04' W 068°55'511.1
2018-Jul-15 21:00N 44°06' W 069°02'3 3.5
2018-Jul-15 20:03N 44°06' W 069°06'0 6.5
2018-Jul-15 20:00N 44°06' W 069°06'510.1
2018-Jul-15 19:30N 44°05' W 068°59'510.0
2018-Jul-15 18:59N 44°03' W 068°53'1 2.0
2018-Jul-15 18:17N 44°02' W 068°51'310.4
2018-Jul-15 18:00N 44°04' W 068°54'510.7
2018-Jul-15 17:30N 44°06' W 069°01'4 2.2
2018-Jul-15 15:45N 44°06' W 069°06'2 8.6
2018-Jul-15 15:29N 44°06' W 069°03'510.9
2018-Jul-15 15:00N 44°05' W 068°56'4 4.3
2018-Jul-15 13:59N 44°02' W 068°51'5 9.9
2018-Jul-15 13:30N 44°05' W 068°56'510.6
2018-Jul-15 13:00N 44°06' W 069°04'2 2.9
2018-Jul-15 12:18N 44°06' W 069°06'2 7.9
2018-Jul-15 11:59N 44°06' W 069°03'610.9
2018-Jul-15 11:29N 44°05' W 068°56'3 0.2
2018-Jul-14 21:35N 44°03' W 068°52'110.7
2018-Jul-14 21:30N 44°03' W 068°53'510.7
2018-Jul-14 21:00N 44°06' W 068°60'5 5.5
2018-Jul-14 20:06N 44°06' W 069°06'1 4.7
2018-Jul-14 19:58N 44°06' W 069°06'510.4
2018-Jul-14 19:30N 44°05' W 068°59'5 9.8
2018-Jul-14 18:59N 44°03' W 068°53'2 3.6
2018-Jul-14 18:29N 44°03' W 068°50'3 5.7
2018-Jul-14 17:59N 44°04' W 068°54'510.8
2018-Jul-14 17:30N 44°06' W 069°01'4 2.6
2018-Jul-14 15:54N 44°06' W 069°06'4 9.7
2018-Jul-14 15:29N 44°06' W 069°01'510.7
2018-Jul-14 15:00N 44°04' W 068°54'3 5.1
2018-Jul-14 14:25N 44°03' W 068°50'7 7.1
2018-Jul-14 13:30N 44°05' W 068°59'510.4
2018-Jul-14 13:00N 44°06' W 069°06'1 0.7
2018-Jul-14 12:19N 44°06' W 069°06'2 7.7
2018-Jul-14 12:00N 44°06' W 069°03'610.9
2018-Jul-14 11:30N 44°05' W 068°56'4 0.3
2018-Jul-13 21:43N 44°02' W 068°51'210.0
2018-Jul-13 21:30N 44°04' W 068°53'510.2
2018-Jul-13 21:00N 44°05' W 068°60'5 5.0
2018-Jul-13 20:02N 44°06' W 069°06'0 7.6
2018-Jul-13 20:00N 44°06' W 069°06'510.1
2018-Jul-13 19:29N 44°06' W 068°59'510.1
2018-Jul-13 19:00N 44°03' W 068°53'2 3.7
2018-Jul-13 18:28N 44°03' W 068°50'2 4.5
2018-Jul-13 18:00N 44°03' W 068°53'510.7
2018-Jul-13 17:30N 44°05' W 068°60'4 2.5
2018-Jul-13 15:44N 44°06' W 069°06'2 9.4
2018-Jul-13 15:30N 44°06' W 069°03'510.6
2018-Jul-13 15:00N 44°05' W 068°56'4 3.9
2018-Jul-13 14:00N 44°03' W 068°51'510.1
2018-Jul-13 13:29N 44°05' W 068°57'510.7
2018-Jul-13 12:59N 44°06' W 069°05'1 1.6
2018-Jul-13 12:15N 44°06' W 069°06'2 9.2
2018-Jul-13 12:00N 44°06' W 069°03'611.0
2018-Jul-13 11:29N 44°05' W 068°56'4 0.3
2018-Jul-12 21:48N 44°02' W 068°51'3 9.6
2018-Jul-12 21:30N 44°04' W 068°54'510.7
2018-Jul-12 21:00N 44°06' W 069°01'4 4.1
2018-Jul-12 20:05N 44°06' W 069°06'1 6.4
2018-Jul-12 19:59N 44°06' W 069°06'510.7
2018-Jul-12 19:30N 44°05' W 068°58'6 5.0
2018-Jul-12 18:15N 44°02' W 068°51'310.6
2018-Jul-12 18:00N 44°04' W 068°54'510.7
2018-Jul-12 17:30N 44°06' W 069°01'4 2.4
2018-Jul-12 15:47N 44°06' W 069°06'3 9.6
2018-Jul-12 15:29N 44°06' W 069°02'510.6
2018-Jul-12 15:00N 44°04' W 068°56'4 4.0
2018-Jul-12 14:00N 44°02' W 068°51'510.2
2018-Jul-12 13:30N 44°05' W 068°57'510.4
2018-Jul-12 13:00N 44°06' W 069°04'2 3.7
2018-Jul-12 12:29N 44°06' W 069°06'2 4.6
2018-Jul-12 12:00N 44°06' W 069°03'510.9
2018-Jul-12 11:30N 44°05' W 068°56'  
Track history (hours):
 
Tides and Currents Weather Stations Pressure Air Temp Water Temp Dewpoint Dewpoint Depression Visibility Wind Speed Wind Dir Waves Ship Positions

Captain Charles Philbrook

Owner: State of Maine, O.I.T., Radio Operations, Augusta, ME. More information available from US FCC via Universal Licensing System and Coast Guard Vessel Documentation Center.

Last reported at 2018-Jul-21 23:47 UTC. Time now 2018-Jul-22 01:00 UTC.
Position N 44°03' W 068°50'.

Length 40 m; draft 3.2 m.

Type: Passenger vessel. MMSI: 367342230.

Date/timePositionNaut miles runAvg speedWind from/ knotsBaromVisibWave heightAir tempDewpointWater temp
2018-Jul-21 23:47N 44°03' W 068°50'0 0.0
2018-Jul-21 23:26N 44°03' W 068°50'0 0.0
2018-Jul-21 23:00N 44°03' W 068°50'0 0.0
2018-Jul-21 22:28N 44°03' W 068°50'0 0.6
2018-Jul-21 21:42N 44°02' W 068°51'210.5
2018-Jul-21 21:30N 44°04' W 068°53'510.3
2018-Jul-21 21:00N 44°06' W 068°60'5 4.5
2018-Jul-21 19:58N 44°06' W 069°06'510.2
2018-Jul-21 19:30N 44°06' W 068°60'510.8
2018-Jul-21 19:00N 44°03' W 068°53'2 2.5
2018-Jul-21 18:15N 44°02' W 068°51'310.1
2018-Jul-21 18:00N 44°04' W 068°54'510.4
2018-Jul-21 17:30N 44°06' W 069°00'4 2.6
2018-Jul-21 15:49N 44°06' W 069°06'3 8.5
2018-Jul-21 15:30N 44°06' W 069°03'510.5
2018-Jul-21 15:00N 44°05' W 068°56'4 3.8
2018-Jul-21 13:55N 44°02' W 068°51'510.6
2018-Jul-21 13:29N 44°05' W 068°56'510.9
2018-Jul-21 13:00N 44°06' W 069°03'2 2.4
2018-Jul-21 12:15N 44°06' W 069°06'210.1
2018-Jul-21 12:00N 44°06' W 069°03'610.5
2018-Jul-21 11:28N 44°04' W 068°55'4 8.4
2018-Jul-21 11:00N 44°03' W 068°50'0 0.0
2018-Jul-20 21:52N 44°03' W 068°50'3 7.9
2018-Jul-20 21:31N 44°04' W 068°54'510.5
2018-Jul-20 21:00N 44°06' W 069°01'4 8.2
2018-Jul-20 20:29N 44°06' W 069°06'0 0.0
2018-Jul-20 20:00N 44°06' W 069°06'5 9.6
2018-Jul-20 19:30N 44°06' W 068°60'510.7
2018-Jul-20 19:00N 44°03' W 068°53'2 4.2
2018-Jul-20 18:30N 44°03' W 068°50'3 5.2
2018-Jul-20 18:01N 44°04' W 068°54'510.2
2018-Jul-20 17:30N 44°06' W 069°00'5 8.2
2018-Jul-20 16:57N 44°06' W 069°06'0 0.0
2018-Jul-20 16:30N 44°06' W 069°06'0 0.1
2018-Jul-20 15:58N 44°06' W 069°06'5 9.7
2018-Jul-20 15:30N 44°06' W 069°00'510.3
2018-Jul-20 15:00N 44°04' W 068°53'2 2.9
2018-Jul-20 14:14N 44°02' W 068°51'210.3
2018-Jul-20 14:00N 44°04' W 068°54'510.5
2018-Jul-20 13:30N 44°06' W 069°00'4 8.9
2018-Jul-20 13:00N 44°06' W 069°06'0 0.0
2018-Jul-20 12:30N 44°06' W 069°06'4 7.1
2018-Jul-20 12:00N 44°06' W 069°02'510.4
2018-Jul-20 11:30N 44°04' W 068°55'4 6.0
2018-Jul-20 10:55N 44°03' W 068°50'1 0.1
2018-Jul-19 21:36N 44°03' W 068°52'110.9
2018-Jul-19 21:28N 44°04' W 068°53'510.7
2018-Jul-19 21:00N 44°06' W 068°60'5 8.6
2018-Jul-19 20:26N 44°06' W 069°06'0 0.4
2018-Jul-19 20:00N 44°06' W 069°06'5 9.8
2018-Jul-19 19:30N 44°06' W 068°60'610.5
2018-Jul-19 18:57N 44°03' W 068°52'2 3.5
2018-Jul-19 18:30N 44°03' W 068°50'3 6.3
2018-Jul-19 17:58N 44°04' W 068°55'510.4
2018-Jul-19 17:30N 44°06' W 069°01'4 2.5
2018-Jul-19 15:49N 44°06' W 069°06'3 9.1
2018-Jul-19 15:30N 44°06' W 069°02'510.6
2018-Jul-19 15:00N 44°04' W 068°55'3 2.9
2018-Jul-19 13:55N 44°03' W 068°52'410.3
2018-Jul-19 13:30N 44°05' W 068°57'510.7
2018-Jul-19 12:59N 44°06' W 069°04'2 2.5
2018-Jul-19 12:22N 44°06' W 069°06'3 8.1
2018-Jul-19 12:00N 44°06' W 069°02'510.4
2018-Jul-19 11:30N 44°04' W 068°56'4 0.3
2018-Jul-18 21:41N 44°02' W 068°51'210.7
2018-Jul-18 21:29N 44°04' W 068°53'510.6
2018-Jul-18 21:00N 44°06' W 068°60'5 4.7
2018-Jul-18 20:01N 44°06' W 069°06'0 7.1
2018-Jul-18 20:00N 44°06' W 069°06'510.0
2018-Jul-18 19:30N 44°06' W 068°59'510.3
2018-Jul-18 19:00N 44°03' W 068°53'0 0.4
2018-Jul-18 18:09N 44°03' W 068°53'2 9.8
2018-Jul-18 17:59N 44°04' W 068°54'510.2
2018-Jul-18 17:30N 44°06' W 069°01'4 2.3
2018-Jul-18 15:47N 44°06' W 069°06'3 9.4
2018-Jul-18 15:30N 44°06' W 069°03'510.5
2018-Jul-18 15:00N 44°05' W 068°56'2 2.3
2018-Jul-18 13:55N 44°03' W 068°53'410.0
2018-Jul-18 13:28N 44°05' W 068°58'510.9
2018-Jul-18 12:58N 44°06' W 069°06'0 0.7
2018-Jul-18 12:18N 44°06' W 069°06'3 9.2
2018-Jul-18 12:00N 44°06' W 069°02'510.1
2018-Jul-18 11:30N 44°05' W 068°56'4 0.3
2018-Jul-17 22:10N 44°02' W 068°51'210.2
2018-Jul-17 21:58N 44°03' W 068°53'510.9
2018-Jul-17 21:30N 44°06' W 068°60'5 4.6
2018-Jul-17 20:30N 44°06' W 069°06'5 9.8
2018-Jul-17 19:59N 44°05' W 068°59'1 0.4
2018-Jul-17 18:07N 44°05' W 068°58'210.2
2018-Jul-17 17:55N 44°06' W 069°01'4 1.8
2018-Jul-17 15:48N 44°06' W 069°06'3 9.0
2018-Jul-17 15:30N 44°06' W 069°03'510.8
2018-Jul-17 15:00N 44°04' W 068°55'4 3.5
2018-Jul-17 13:57N 44°02' W 068°51'5 9.8
2018-Jul-17 13:26N 44°05' W 068°57'511.0
2018-Jul-17 12:59N 44°06' W 069°04'2 2.4
2018-Jul-17 12:18N 44°06' W 069°06'3 9.5
2018-Jul-17 12:00N 44°06' W 069°02'510.5
2018-Jul-17 11:30N 44°04' W 068°55'3 0.3
2018-Jul-16 21:42N 44°02' W 068°51'210.4
2018-Jul-16 21:30N 44°04' W 068°53'610.9
2018-Jul-16 20:59N 44°06' W 069°01'4 4.5
2018-Jul-16 20:03N 44°06' W 069°06'0 6.3
2018-Jul-16 20:00N 44°06' W 069°06'510.1
2018-Jul-16 19:30N 44°06' W 068°59'510.1
2018-Jul-16 18:59N 44°03' W 068°53'1 1.0
2018-Jul-16 18:05N 44°04' W 068°53'210.4
2018-Jul-16 17:53N 44°05' W 068°56'410.5
2018-Jul-16 17:30N 44°06' W 069°01'4 2.0
2018-Jul-16 15:43N 44°06' W 069°06'2 8.4
2018-Jul-16 15:30N 44°06' W 069°04'611.0
2018-Jul-16 15:00N 44°05' W 068°56'4 4.2
2018-Jul-16 14:03N 44°03' W 068°52'111.2
2018-Jul-16 13:59N 44°03' W 068°53'4 9.0
2018-Jul-16 13:30N 44°05' W 068°58'510.8
2018-Jul-16 13:00N 44°06' W 069°05'1 1.2
2018-Jul-16 12:19N 44°06' W 069°06'3 9.2
2018-Jul-16 12:00N 44°06' W 069°02'510.8
2018-Jul-16 11:30N 44°04' W 068°55'2 0.1
2018-Jul-15 21:38N 44°03' W 068°53'210.2
2018-Jul-15 21:26N 44°04' W 068°55'511.1
2018-Jul-15 21:00N 44°06' W 069°02'3 3.5
2018-Jul-15 20:03N 44°06' W 069°06'0 6.5
2018-Jul-15 20:00N 44°06' W 069°06'510.1
2018-Jul-15 19:30N 44°05' W 068°59'510.0
2018-Jul-15 18:59N 44°03' W 068°53'1 2.0
2018-Jul-15 18:17N 44°02' W 068°51'310.4
2018-Jul-15 18:00N 44°04' W 068°54'510.7
2018-Jul-15 17:30N 44°06' W 069°01'4 2.2
2018-Jul-15 15:45N 44°06' W 069°06'2 8.6
2018-Jul-15 15:29N 44°06' W 069°03'510.9
2018-Jul-15 15:00N 44°05' W 068°56'4 4.3
2018-Jul-15 13:59N 44°02' W 068°51'5 9.9
2018-Jul-15 13:30N 44°05' W 068°56'510.6
2018-Jul-15 13:00N 44°06' W 069°04'2 2.9
2018-Jul-15 12:18N 44°06' W 069°06'2 7.9
2018-Jul-15 11:59N 44°06' W 069°03'610.9
2018-Jul-15 11:29N 44°05' W 068°56'3 0.2
2018-Jul-14 21:35N 44°03' W 068°52'110.7
2018-Jul-14 21:30N 44°03' W 068°53'510.7
2018-Jul-14 21:00N 44°06' W 068°60'5 5.5
2018-Jul-14 20:06N 44°06' W 069°06'1 4.7
2018-Jul-14 19:58N 44°06' W 069°06'510.4
2018-Jul-14 19:30N 44°05' W 068°59'5 9.8
2018-Jul-14 18:59N 44°03' W 068°53'2 3.6
2018-Jul-14 18:29N 44°03' W 068°50'3 5.7
2018-Jul-14 17:59N 44°04' W 068°54'510.8
2018-Jul-14 17:30N 44°06' W 069°01'4 2.6
2018-Jul-14 15:54N 44°06' W 069°06'4 9.7
2018-Jul-14 15:29N 44°06' W 069°01'510.7
2018-Jul-14 15:00N 44°04' W 068°54'3 5.1
2018-Jul-14 14:25N 44°03' W 068°50'7 7.1
2018-Jul-14 13:30N 44°05' W 068°59'510.4
2018-Jul-14 13:00N 44°06' W 069°06'1 0.7
2018-Jul-14 12:19N 44°06' W 069°06'2 7.7
2018-Jul-14 12:00N 44°06' W 069°03'610.9
2018-Jul-14 11:30N 44°05' W 068°56'4 0.3
2018-Jul-13 21:43N 44°02' W 068°51'210.0
2018-Jul-13 21:30N 44°04' W 068°53'510.2
2018-Jul-13 21:00N 44°05' W 068°60'5 5.0
2018-Jul-13 20:02N 44°06' W 069°06'0 7.6
2018-Jul-13 20:00N 44°06' W 069°06'510.1
2018-Jul-13 19:29N 44°06' W 068°59'510.1
2018-Jul-13 19:00N 44°03' W 068°53'2 3.7
2018-Jul-13 18:28N 44°03' W 068°50'2 4.5
2018-Jul-13 18:00N 44°03' W 068°53'510.7
2018-Jul-13 17:30N 44°05' W 068°60'4 2.5
2018-Jul-13 15:44N 44°06' W 069°06'2 9.4
2018-Jul-13 15:30N 44°06' W 069°03'510.6
2018-Jul-13 15:00N 44°05' W 068°56'4 3.9
2018-Jul-13 14:00N 44°03' W 068°51'510.1
2018-Jul-13 13:29N 44°05' W 068°57'510.7
2018-Jul-13 12:59N 44°06' W 069°05'1 1.6
2018-Jul-13 12:15N 44°06' W 069°06'2 9.2
2018-Jul-13 12:00N 44°06' W 069°03'611.0
2018-Jul-13 11:29N 44°05' W 068°56'4 0.3
2018-Jul-12 21:48N 44°02' W 068°51'3 9.6
2018-Jul-12 21:30N 44°04' W 068°54'510.7
2018-Jul-12 21:00N 44°06' W 069°01'4 4.1
2018-Jul-12 20:05N 44°06' W 069°06'1 6.4
2018-Jul-12 19:59N 44°06' W 069°06'510.7
2018-Jul-12 19:30N 44°05' W 068°58'6 5.0
2018-Jul-12 18:15N 44°02' W 068°51'310.6
2018-Jul-12 18:00N 44°04' W 068°54'510.7
2018-Jul-12 17:30N 44°06' W 069°01'4 2.4
2018-Jul-12 15:47N 44°06' W 069°06'3 9.6
2018-Jul-12 15:29N 44°06' W 069°02'510.6
2018-Jul-12 15:00N 44°04' W 068°56'4 4.0
2018-Jul-12 14:00N 44°02' W 068°51'510.2
2018-Jul-12 13:30N 44°05' W 068°57'510.4
2018-Jul-12 13:00N 44°06' W 069°04'2 3.7
2018-Jul-12 12:29N 44°06' W 069°06'2 4.6
2018-Jul-12 12:00N 44°06' W 069°03'510.9
2018-Jul-12 11:30N 44°05' W 068°56'  

Dump ship's entire track history